Time;durP1;ratioP1;P1;durP2;ratioP2;P2;SDS_P1;SDS_P2;PMS_P1;PMS_P2;Temp;Humidity;BMP_temperature;BMP_pressure;BME280_temperature;BME280_humidity;BME280_pressure;Samples;Min_cycle;Max_cycle;Signal;HPM_P1;HPM_P2
2023/05/18 00:00:13;;;;;;;8.68;2.92;;;10.70;99.90;;;;;;5073233;28;20489;-83
2023/05/18 00:02:39;;;;;;;5.10;2.40;;;10.60;99.90;;;;;;5073153;28;20036;-83
2023/05/18 00:05:06;;;;;;;7.00;2.47;;;10.60;99.90;;;;;;5073393;28;20033;-84
2023/05/18 00:07:32;;;;;;;4.07;2.50;;;10.60;99.90;;;;;;5058065;28;20044;-84
2023/05/18 00:09:58;;;;;;;7.32;2.55;;;10.60;99.90;;;;;;5054117;28;20025;-83
2023/05/18 00:12:24;;;;;;;5.50;2.50;;;10.60;99.90;;;;;;5054371;28;20029;-85
2023/05/18 00:14:50;;;;;;;7.25;2.63;;;10.60;99.90;;;;;;5052590;28;20032;-85
2023/05/18 00:17:15;;;;;;;7.78;2.85;;;10.60;99.90;;;;;;5054318;28;20029;-85
2023/05/18 00:19:41;;;;;;;7.05;2.35;;;10.50;99.90;;;;;;5052747;28;20037;-85
2023/05/18 00:22:07;;;;;;;5.28;2.67;;;10.50;99.90;;;;;;5054218;28;20476;-85
2023/05/18 00:24:32;;;;;;;5.75;2.30;;;10.50;99.90;;;;;;5053777;28;20047;-85
2023/05/18 00:26:58;;;;;;;6.30;2.60;;;10.40;99.90;;;;;;5053153;28;20112;-84
2023/05/18 00:29:23;;;;;;;5.93;2.30;;;10.40;99.90;;;;;;5053586;28;20075;-85
2023/05/18 00:31:49;;;;;;;5.47;2.05;;;10.40;99.90;;;;;;5053234;28;20371;-85
2023/05/18 00:34:15;;;;;;;6.10;2.58;;;10.40;99.90;;;;;;5053340;28;20025;-85
2023/05/18 00:36:41;;;;;;;6.50;2.22;;;10.40;99.90;;;;;;5052757;28;20075;-85
2023/05/18 00:39:08;;;;;;;5.90;2.40;;;10.40;99.90;;;;;;5054269;28;20050;-85
2023/05/18 00:41:34;;;;;;;3.63;1.90;;;10.30;99.90;;;;;;5053924;28;20044;-84
2023/05/18 00:44:00;;;;;;;5.38;2.22;;;10.20;99.90;;;;;;5053076;28;20460;-84
2023/05/18 00:46:27;;;;;;;4.97;2.35;;;10.20;99.90;;;;;;5057603;28;20035;-84
2023/05/18 00:48:55;;;;;;;5.38;2.42;;;10.20;99.90;;;;;;5073317;28;20063;-84
2023/05/18 00:51:22;;;;;;;5.20;2.13;;;10.10;99.90;;;;;;5073951;28;20040;-84
2023/05/18 00:53:50;;;;;;;4.07;2.13;;;10.10;99.90;;;;;;5072727;28;20125;-84
2023/05/18 00:56:16;;;;;;;8.73;2.20;;;10.00;99.90;;;;;;5072940;28;20033;-84
2023/05/18 00:58:42;;;;;;;5.60;2.30;;;10.00;99.90;;;;;;5072716;28;20024;-83
2023/05/18 01:01:08;;;;;;;6.07;2.40;;;10.00;99.90;;;;;;5073413;28;20048;-84
2023/05/18 01:03:37;;;;;;;5.68;2.20;;;10.00;99.90;;;;;;5074470;28;20470;-84
2023/05/18 01:06:04;;;;;;;7.47;2.13;;;10.00;99.90;;;;;;5077948;28;20461;-84
2023/05/18 01:08:31;;;;;;;6.20;2.40;;;10.00;99.90;;;;;;5077241;28;20028;-83
2023/05/18 01:11:13;;;;;;;4.50;2.40;;;9.90;99.90;;;;;;5076147;28;20064;-82
2023/05/18 01:14:12;;;;;;;5.63;1.92;;;10.00;99.90;;;;;;5076421;28;20037;-84
2023/05/18 01:16:52;;;;;;;5.80;1.73;;;10.00;99.90;;;;;;5076892;28;20047;-84
2023/05/18 01:19:36;;;;;;;4.63;1.90;;;10.00;99.90;;;;;;5077288;28;20028;-81
2023/05/18 01:22:21;;;;;;;6.50;2.13;;;10.00;99.90;;;;;;5076359;28;20424;-80
2023/05/18 01:24:52;;;;;;;5.50;2.10;;;10.00;99.90;;;;;;5076099;28;20473;-81
2023/05/18 01:27:20;;;;;;;9.02;2.00;;;10.00;99.90;;;;;;5077404;28;20052;-80
2023/05/18 01:29:48;;;;;;;5.47;1.88;;;10.00;99.90;;;;;;5076792;28;20033;-80
2023/05/18 01:32:21;;;;;;;5.07;1.80;;;9.90;99.90;;;;;;5093229;28;20033;-80
2023/05/18 01:34:47;;;;;;;6.68;1.90;;;10.00;99.90;;;;;;5075726;28;20029;-81
2023/05/18 01:37:13;;;;;;;4.45;1.80;;;10.00;99.90;;;;;;5076167;28;20028;-80
2023/05/18 01:39:39;;;;;;;7.95;1.98;;;10.00;99.90;;;;;;5077029;28;20036;-82
2023/05/18 01:42:11;;;;;;;4.80;1.98;;;9.80;99.90;;;;;;5077074;28;20025;-80
2023/05/18 01:44:45;;;;;;;4.05;2.05;;;9.80;99.90;;;;;;5076519;28;20380;-86
2023/05/18 01:47:15;;;;;;;5.30;1.98;;;9.80;99.90;;;;;;5075804;28;20032;-81
2023/05/18 01:50:01;;;;;;;5.45;1.92;;;9.80;99.90;;;;;;5075040;28;20028;-85
2023/05/18 01:52:45;;;;;;;5.50;2.00;;;9.70;99.90;;;;;;5076740;28;20035;-80
2023/05/18 01:55:13;;;;;;;5.88;2.13;;;9.70;99.90;;;;;;5076014;28;20021;-80
2023/05/18 01:57:43;;;;;;;4.70;2.00;;;9.70;99.90;;;;;;5075772;28;20073;-84
2023/05/18 02:00:10;;;;;;;3.80;1.65;;;9.60;99.90;;;;;;5075563;28;20064;-80
2023/05/18 02:02:36;;;;;;;3.85;1.75;;;9.60;99.90;;;;;;5076982;28;20457;-80
2023/05/18 02:05:03;;;;;;;5.55;2.38;;;9.60;99.90;;;;;;5076686;28;20040;-79
2023/05/18 02:07:29;;;;;;;4.63;2.38;;;9.70;99.90;;;;;;5075579;28;20020;-79
2023/05/18 02:09:54;;;;;;;5.47;2.00;;;9.60;99.90;;;;;;5092282;28;20056;-82
2023/05/18 02:12:20;;;;;;;8.05;2.33;;;9.50;99.90;;;;;;5076768;28;20195;-82
2023/05/18 02:14:46;;;;;;;4.63;1.98;;;9.50;99.90;;;;;;5075890;28;20033;-83
2023/05/18 02:17:11;;;;;;;5.03;2.60;;;9.50;99.90;;;;;;5075608;28;20380;-82
2023/05/18 02:19:37;;;;;;;6.82;2.35;;;9.50;99.90;;;;;;5075376;28;20074;-82
2023/05/18 02:22:07;;;;;;;5.82;2.40;;;9.50;99.90;;;;;;5075476;28;20025;-82
2023/05/18 02:24:33;;;;;;;7.03;2.50;;;9.40;99.90;;;;;;5092200;28;20094;-82
2023/05/18 02:26:58;;;;;;;10.13;2.67;;;9.40;99.90;;;;;;5075496;28;20066;-81
2023/05/18 02:29:24;;;;;;;7.13;2.40;;;9.30;99.90;;;;;;5075032;28;20056;-81
2023/05/18 02:31:50;;;;;;;12.48;3.30;;;9.20;99.90;;;;;;5074142;28;20048;-82
2023/05/18 02:34:16;;;;;;;6.32;2.47;;;9.20;99.90;;;;;;5091552;28;20039;-81
2023/05/18 02:36:42;;;;;;;10.05;2.90;;;9.10;99.90;;;;;;5075713;28;20074;-83
2023/05/18 02:39:08;;;;;;;5.97;2.75;;;9.10;99.90;;;;;;5091490;28;20076;-81
2023/05/18 02:41:35;;;;;;;8.18;2.58;;;9.10;99.90;;;;;;5074806;28;20024;-81
2023/05/18 02:44:02;;;;;;;9.02;2.72;;;9.10;99.90;;;;;;5074402;28;20151;-82
2023/05/18 02:46:28;;;;;;;6.25;2.22;;;9.10;99.90;;;;;;5075017;28;20025;-81
2023/05/18 02:48:53;;;;;;;8.50;2.30;;;9.10;99.90;;;;;;5080724;28;20523;-81
2023/05/18 02:51:20;;;;;;;8.27;2.40;;;9.10;99.90;;;;;;5092663;28;20088;-81
2023/05/18 02:53:46;;;;;;;4.32;2.30;;;9.10;99.90;;;;;;5075201;28;20024;-82
2023/05/18 02:56:12;;;;;;;8.18;2.47;;;9.10;99.90;;;;;;5075624;28;20085;-80
2023/05/18 02:58:38;;;;;;;4.90;2.20;;;9.10;99.90;;;;;;5074527;28;20024;-81
2023/05/18 03:01:07;;;;;;;10.25;2.50;;;9.10;99.90;;;;;;5074640;28;20060;-81
2023/05/18 03:03:33;;;;;;;8.82;2.17;;;9.00;99.90;;;;;;5074632;28;20036;-80
2023/05/18 03:06:01;;;;;;;7.53;2.10;;;9.00;99.90;;;;;;5073632;28;20025;-80
2023/05/18 03:08:27;;;;;;;4.25;2.53;;;9.00;99.90;;;;;;5075178;28;20016;-80
2023/05/18 03:10:56;;;;;;;3.22;2.13;;;9.10;99.90;;;;;;5074517;28;20025;-80
2023/05/18 03:13:21;;;;;;;3.72;2.00;;;9.00;99.90;;;;;;5074318;28;20050;-80
2023/05/18 03:15:48;;;;;;;4.80;2.60;;;9.00;99.90;;;;;;5074754;28;20029;-82
2023/05/18 03:18:13;;;;;;;7.75;2.30;;;9.00;99.90;;;;;;5070094;28;20017;-83
2023/05/18 03:20:39;;;;;;;6.70;2.28;;;9.00;99.90;;;;;;5066265;28;20108;-83
2023/05/18 03:23:05;;;;;;;5.90;2.47;;;9.00;99.90;;;;;;5070364;28;20025;-83
2023/05/18 03:25:31;;;;;;;6.65;2.80;;;9.00;99.90;;;;;;5064777;28;20025;-82
2023/05/18 03:27:58;;;;;;;4.45;2.17;;;9.00;99.90;;;;;;5061533;28;20078;-81
2023/05/18 03:30:23;;;;;;;5.47;2.05;;;9.00;99.90;;;;;;5076717;28;20031;-81
2023/05/18 03:32:49;;;;;;;8.25;2.33;;;9.00;99.90;;;;;;5078205;28;20389;-82
2023/05/18 03:35:15;;;;;;;5.63;1.98;;;9.00;99.90;;;;;;5078063;28;20029;-81
2023/05/18 03:37:41;;;;;;;9.30;2.40;;;8.90;99.90;;;;;;5077147;28;20579;-81
2023/05/18 03:40:12;;;;;;;7.13;2.45;;;8.90;99.90;;;;;;5076550;28;20778;-81
2023/05/18 03:42:39;;;;;;;6.82;2.35;;;8.90;99.90;;;;;;5077745;28;20020;-81
2023/05/18 03:45:06;;;;;;;4.95;2.08;;;8.90;99.90;;;;;;5075234;28;20035;-81
2023/05/18 03:47:32;;;;;;;6.75;2.22;;;8.90;99.90;;;;;;5076006;28;20360;-80
2023/05/18 03:49:58;;;;;;;3.65;1.88;;;8.90;99.90;;;;;;5076238;28;20082;-81
2023/05/18 03:52:24;;;;;;;4.53;2.13;;;8.90;99.90;;;;;;5077583;28;20419;-81
2023/05/18 03:54:50;;;;;;;5.45;1.95;;;8.90;99.90;;;;;;5076396;28;20032;-81
2023/05/18 03:57:16;;;;;;;6.38;2.08;;;8.90;99.90;;;;;;5077921;28;20032;-81
2023/05/18 03:59:43;;;;;;;7.40;2.35;;;8.90;99.90;;;;;;5077630;28;20032;-81
2023/05/18 04:02:10;;;;;;;8.07;2.15;;;8.90;99.90;;;;;;5077953;28;20509;-81
2023/05/18 04:04:36;;;;;;;7.90;2.67;;;8.90;99.90;;;;;;5077766;28;20138;-81
2023/05/18 04:07:04;;;;;;;6.85;2.00;;;8.90;99.90;;;;;;5077709;28;20027;-81
2023/05/18 04:09:30;;;;;;;5.63;1.90;;;9.00;99.90;;;;;;5078280;28;20036;-81
2023/05/18 04:11:56;;;;;;;3.08;1.60;;;9.00;99.90;;;;;;5077082;28;20032;-81
2023/05/18 04:14:23;;;;;;;6.95;2.00;;;8.90;99.90;;;;;;5077337;28;20077;-81
2023/05/18 04:16:50;;;;;;;5.25;2.00;;;9.00;99.90;;;;;;5076050;28;20028;-83
2023/05/18 04:19:17;;;;;;;6.72;2.30;;;9.00;99.90;;;;;;5077304;28;20112;-82
2023/05/18 04:21:46;;;;;;;4.60;1.73;;;9.00;99.90;;;;;;5077194;28;20396;-81
2023/05/18 04:24:13;;;;;;;3.88;2.20;;;8.90;99.90;;;;;;5076468;28;20028;-81
2023/05/18 04:26:39;;;;;;;7.35;2.03;;;8.80;99.90;;;;;;5075895;28;20025;-81
2023/05/18 04:29:06;;;;;;;8.43;2.40;;;8.90;99.90;;;;;;5075507;28;20073;-82
2023/05/18 04:31:35;;;;;;;11.25;2.60;;;8.90;99.90;;;;;;5075862;28;20482;-81
2023/05/18 04:34:01;;;;;;;3.70;1.98;;;9.00;99.90;;;;;;5076208;28;20024;-83
2023/05/18 04:36:29;;;;;;;8.10;2.08;;;8.90;99.90;;;;;;5077462;28;20480;-84
2023/05/18 04:38:57;;;;;;;4.75;2.00;;;8.90;99.90;;;;;;5076810;28;20021;-84
2023/05/18 04:41:23;;;;;;;6.95;1.95;;;8.90;99.90;;;;;;5077479;28;20028;-84
2023/05/18 04:43:49;;;;;;;5.68;2.28;;;9.00;99.90;;;;;;5076472;28;20465;-84
2023/05/18 04:46:15;;;;;;;7.10;2.25;;;9.00;99.90;;;;;;5076132;28;20031;-83
2023/05/18 04:48:41;;;;;;;7.50;2.40;;;9.00;99.90;;;;;;5076596;28;20480;-83
2023/05/18 04:51:07;;;;;;;5.75;2.05;;;9.00;99.90;;;;;;5078257;28;20043;-83
2023/05/18 04:53:33;;;;;;;7.32;2.72;;;9.00;99.90;;;;;;5084412;28;20048;-82
2023/05/18 04:55:59;;;;;;;7.00;2.17;;;9.10;99.90;;;;;;5083778;28;20076;-83
2023/05/18 04:58:26;;;;;;;5.57;2.22;;;9.00;99.90;;;;;;5076250;28;20021;-83
2023/05/18 05:00:52;;;;;;;11.05;2.63;;;9.10;99.90;;;;;;5074194;28;20056;-83
2023/05/18 05:03:18;;;;;;;10.10;2.40;;;9.00;99.90;;;;;;5075600;28;20032;-84
2023/05/18 05:05:44;;;;;;;8.98;2.72;;;9.00;99.90;;;;;;5075859;28;20025;-83
2023/05/18 05:08:10;;;;;;;8.75;2.40;;;9.00;99.90;;;;;;5076677;28;20021;-83
2023/05/18 05:10:36;;;;;;;6.60;2.28;;;9.00;99.90;;;;;;5077214;28;20028;-84
2023/05/18 05:13:02;;;;;;;5.00;2.25;;;9.10;99.90;;;;;;5076306;28;20029;-84
2023/05/18 05:15:28;;;;;;;7.22;2.20;;;9.00;99.90;;;;;;5077147;28;20031;-84
2023/05/18 05:17:53;;;;;;;4.82;2.13;;;9.10;99.90;;;;;;5076281;28;20025;-84
2023/05/18 05:20:19;;;;;;;7.15;2.53;;;9.10;99.90;;;;;;5077392;28;20036;-86
2023/05/18 05:22:45;;;;;;;8.90;2.25;;;9.10;99.90;;;;;;5077214;28;20024;-85
2023/05/18 05:25:10;;;;;;;7.70;2.33;;;9.10;99.90;;;;;;5078111;28;20361;-86
2023/05/18 05:27:36;;;;;;;7.18;2.35;;;9.20;99.90;;;;;;5077131;28;20047;-85
2023/05/18 05:30:02;;;;;;;8.32;2.08;;;9.20;99.90;;;;;;5077749;28;20064;-86
2023/05/18 05:32:28;;;;;;;4.90;2.47;;;9.20;99.90;;;;;;5076778;28;20032;-83
2023/05/18 05:34:53;;;;;;;9.82;2.33;;;9.20;99.90;;;;;;5077395;28;20035;-84
2023/05/18 05:37:19;;;;;;;7.35;2.20;;;9.30;99.90;;;;;;5077808;28;20035;-84
2023/05/18 05:39:45;;;;;;;5.35;2.30;;;9.30;99.90;;;;;;5070159;28;20357;-84
2023/05/18 05:42:10;;;;;;;6.28;2.05;;;9.30;99.90;;;;;;5070530;28;20028;-84
2023/05/18 05:44:36;;;;;;;5.32;2.17;;;9.30;99.90;;;;;;5067824;28;20086;-84
2023/05/18 05:47:02;;;;;;;5.20;2.10;;;9.30;99.90;;;;;;5069085;28;20013;-84
2023/05/18 05:49:27;;;;;;;6.82;2.15;;;9.30;99.90;;;;;;5061021;28;20035;-84
2023/05/18 05:51:53;;;;;;;5.97;2.20;;;9.40;99.90;;;;;;5077796;28;20035;-84
2023/05/18 05:54:19;;;;;;;10.40;2.10;;;9.40;99.90;;;;;;5075685;28;20033;-84
2023/05/18 05:56:44;;;;;;;4.75;2.10;;;9.40;99.90;;;;;;5077706;28;20074;-83
2023/05/18 05:59:10;;;;;;;4.95;2.25;;;9.50;99.90;;;;;;5077198;28;20100;-82
2023/05/18 06:01:35;;;;;;;7.18;2.42;;;9.50;99.90;;;;;;5065534;28;20057;-83
2023/05/18 06:04:05;;;;;;;12.27;2.35;;;9.50;99.90;;;;;;5060756;28;20065;-83
2023/05/18 06:06:30;;;;;;;8.55;2.25;;;9.60;99.90;;;;;;5078721;28;20058;-83
2023/05/18 06:08:56;;;;;;;8.60;2.03;;;9.60;99.90;;;;;;5076858;28;20031;-83
2023/05/18 06:11:22;;;;;;;10.07;1.98;;;9.70;99.90;;;;;;5078251;28;20029;-83
2023/05/18 06:13:48;;;;;;;5.70;2.10;;;9.70;99.90;;;;;;5064134;28;20032;-84
2023/05/18 06:16:13;;;;;;;7.47;2.05;;;9.70;99.90;;;;;;5076163;28;20100;-83
2023/05/18 06:18:39;;;;;;;6.72;2.10;;;9.80;99.90;;;;;;5082343;28;20021;-83
2023/05/18 06:21:05;;;;;;;4.65;1.95;;;9.90;99.90;;;;;;5072969;28;20036;-84
2023/05/18 06:23:30;;;;;;;8.77;1.75;;;9.90;99.90;;;;;;5066328;28;20016;-84
2023/05/18 06:25:56;;;;;;;5.13;1.83;;;10.00;99.90;;;;;;5071600;28;20119;-85
2023/05/18 06:28:21;;;;;;;8.18;1.83;;;10.00;99.90;;;;;;5075826;28;20035;-84
2023/05/18 06:30:47;;;;;;;4.95;2.03;;;10.10;99.90;;;;;;5091189;28;20043;-84
2023/05/18 06:33:13;;;;;;;6.18;2.13;;;10.20;99.90;;;;;;5091136;28;20032;-84
2023/05/18 06:35:39;;;;;;;4.32;1.75;;;10.20;99.90;;;;;;5062098;28;20036;-84
2023/05/18 06:38:04;;;;;;;9.85;2.05;;;10.30;99.90;;;;;;5071134;28;20547;-84
2023/05/18 06:40:30;;;;;;;5.70;1.75;;;10.40;99.90;;;;;;5070035;28;20054;-83
2023/05/18 06:42:55;;;;;;;4.05;1.60;;;10.40;99.90;;;;;;5071996;28;20021;-82
2023/05/18 06:45:21;;;;;;;3.55;1.48;;;10.40;99.90;;;;;;5063945;28;20028;-83
2023/05/18 06:47:47;;;;;;;3.28;1.10;;;10.50;99.90;;;;;;5075709;28;20462;-84
2023/05/18 06:50:13;;;;;;;6.60;1.48;;;10.60;99.90;;;;;;5073933;28;20132;-84
2023/05/18 06:52:39;;;;;;;6.15;1.40;;;10.70;99.90;;;;;;5075933;28;20036;-84
2023/05/18 06:55:04;;;;;;;5.85;1.75;;;10.70;99.90;;;;;;5074330;28;20462;-83
2023/05/18 06:57:30;;;;;;;5.05;1.77;;;10.70;99.90;;;;;;5075201;28;20058;-83
2023/05/18 06:59:56;;;;;;;4.45;1.45;;;10.70;99.90;;;;;;5059532;28;20478;-84
2023/05/18 07:02:22;;;;;;;5.93;1.52;;;10.80;99.90;;;;;;5053996;28;20497;-84
2023/05/18 07:04:48;;;;;;;5.00;1.33;;;10.90;99.90;;;;;;5054028;28;20377;-84
2023/05/18 07:07:15;;;;;;;19.95;2.50;;;10.90;99.90;;;;;;5054980;28;20032;-84
2023/05/18 07:09:43;;;;;;;9.00;1.33;;;11.00;99.90;;;;;;5065767;28;20082;-83
2023/05/18 07:12:09;;;;;;;4.18;1.35;;;11.00;99.90;;;;;;5074737;28;20024;-84
2023/05/18 07:14:35;;;;;;;12.20;1.85;;;11.10;99.90;;;;;;5059428;28;20112;-84
2023/05/18 07:17:01;;;;;;;4.90;1.60;;;11.10;99.90;;;;;;5053755;28;20119;-84
2023/05/18 07:19:26;;;;;;;4.32;1.30;;;11.10;99.90;;;;;;5054409;28;20025;-84
2023/05/18 07:21:52;;;;;;;7.72;1.90;;;11.20;99.90;;;;;;5068215;28;20108;-84
2023/05/18 07:24:18;;;;;;;8.90;1.67;;;11.30;99.90;;;;;;5055687;28;20114;-84
2023/05/18 07:26:43;;;;;;;3.97;1.48;;;11.30;99.90;;;;;;5069032;28;20032;-84
2023/05/18 07:29:09;;;;;;;7.78;1.67;;;11.40;99.90;;;;;;5080201;28;20024;-86
2023/05/18 07:31:37;;;;;;;6.75;2.20;;;11.40;99.90;;;;;;5074517;28;20031;-83
2023/05/18 07:34:03;;;;;;;9.98;2.50;;;11.50;99.90;;;;;;5061694;28;20029;-82
2023/05/18 07:36:29;;;;;;;6.97;2.10;;;11.50;99.90;;;;;;5069813;28;20024;-82
2023/05/18 07:38:55;;;;;;;7.35;1.80;;;11.50;99.90;;;;;;5055487;28;20118;-83
2023/05/18 07:41:24;;;;;;;8.52;1.60;;;11.50;99.90;;;;;;5074191;28;20032;-82
2023/05/18 07:43:51;;;;;;;9.80;1.65;;;11.60;99.90;;;;;;5066182;28;20032;-83
2023/05/18 07:46:17;;;;;;;5.57;1.65;;;11.60;99.90;;;;;;5063508;28;20183;-84
2023/05/18 07:48:43;;;;;;;6.32;1.63;;;11.60;99.90;;;;;;5055857;28;20520;-85
2023/05/18 07:51:10;;;;;;;8.90;2.30;;;11.70;99.90;;;;;;5061881;28;20043;-82
2023/05/18 07:53:36;;;;;;;6.18;1.52;;;11.70;99.90;;;;;;5073484;28;20063;-82
2023/05/18 07:56:02;;;;;;;7.90;1.58;;;11.70;99.90;;;;;;5071965;28;20032;-81
2023/05/18 07:58:28;;;;;;;7.43;1.63;;;11.80;99.90;;;;;;5055395;28;20119;-81
2023/05/18 08:00:54;;;;;;;5.85;1.60;;;11.80;99.90;;;;;;5059224;28;20051;-81
2023/05/18 08:03:20;;;;;;;9.38;2.28;;;11.90;99.90;;;;;;5069423;28;20025;-81
2023/05/18 08:05:46;;;;;;;10.15;1.80;;;12.00;99.90;;;;;;5058106;28;20116;-85
2023/05/18 08:08:14;;;;;;;9.02;1.48;;;12.00;99.90;;;;;;5074002;28;20454;-85
2023/05/18 08:10:40;;;;;;;7.45;2.03;;;12.00;99.90;;;;;;5089853;28;20051;-83
2023/05/18 08:13:06;;;;;;;9.45;1.83;;;12.10;99.90;;;;;;5064815;28;20480;-83
2023/05/18 08:15:32;;;;;;;8.65;1.45;;;12.10;99.90;;;;;;5072502;28;20033;-82
2023/05/18 08:17:57;;;;;;;5.43;1.40;;;12.20;99.90;;;;;;5073355;28;20029;-84
2023/05/18 08:20:24;;;;;;;7.57;1.92;;;12.20;99.90;;;;;;5069335;28;20389;-81
2023/05/18 08:22:50;;;;;;;6.88;1.75;;;12.30;99.90;;;;;;5053686;28;20021;-83
2023/05/18 08:25:15;;;;;;;8.18;2.03;;;12.30;99.90;;;;;;5066658;28;20480;-80
2023/05/18 08:27:41;;;;;;;7.53;1.60;;;12.30;99.90;;;;;;5064766;28;20036;-82
2023/05/18 08:30:07;;;;;;;4.75;1.60;;;12.40;99.90;;;;;;5070719;28;20043;-83
2023/05/18 08:32:35;;;;;;;10.45;2.05;;;12.40;99.90;;;;;;5068216;28;20045;-83
2023/05/18 08:35:04;;;;;;;5.38;1.63;;;12.40;99.90;;;;;;5065851;28;20025;-84
2023/05/18 08:37:30;;;;;;;12.63;3.28;;;12.50;99.90;;;;;;5061861;28;20029;-83
2023/05/18 08:39:58;;;;;;;6.93;2.58;;;12.50;99.90;;;;;;5062581;28;20037;-81
2023/05/18 08:42:38;;;;;;;5.57;2.35;;;12.60;99.90;;;;;;5069687;28;20524;-82
2023/05/18 08:45:07;;;;;;;8.95;2.58;;;12.70;99.90;;;;;;5072151;28;20020;-83
2023/05/18 08:47:36;;;;;;;6.03;2.20;;;12.70;99.90;;;;;;5073798;28;20056;-85
2023/05/18 08:50:02;;;;;;;6.88;2.38;;;12.70;99.90;;;;;;5071848;28;20105;-83
2023/05/18 08:52:33;;;;;;;4.13;1.90;;;12.80;99.90;;;;;;5072055;28;20029;-84
2023/05/18 08:54:59;;;;;;;4.63;1.90;;;12.90;99.90;;;;;;5052651;28;20086;-83
2023/05/18 08:57:28;;;;;;;7.78;2.08;;;12.90;99.90;;;;;;5053927;28;20021;-85
2023/05/18 08:59:56;;;;;;;6.93;2.10;;;12.90;99.90;;;;;;5054282;28;20098;-83
2023/05/18 09:02:23;;;;;;;6.97;2.13;;;13.00;99.90;;;;;;5052967;28;20044;-81
2023/05/18 09:04:49;;;;;;;8.02;2.47;;;13.00;99.90;;;;;;5058946;28;20029;-83
2023/05/18 09:07:15;;;;;;;6.28;1.90;;;13.10;99.90;;;;;;5061550;28;20029;-83
2023/05/18 09:09:42;;;;;;;7.18;2.30;;;13.10;99.90;;;;;;5070892;28;20036;-83
2023/05/18 09:12:09;;;;;;;5.70;2.20;;;13.20;99.90;;;;;;5053211;28;20029;-82
2023/05/18 09:14:34;;;;;;;9.73;2.50;;;13.30;99.90;;;;;;5053506;28;20485;-82
2023/05/18 09:17:00;;;;;;;5.40;2.35;;;13.30;99.90;;;;;;5064231;28;20047;-82
2023/05/18 09:19:27;;;;;;;7.70;2.50;;;13.30;99.90;;;;;;5062181;28;20027;-80
2023/05/18 09:21:52;;;;;;;9.35;2.80;;;13.40;99.90;;;;;;5068521;28;20025;-81
2023/05/18 09:24:19;;;;;;;8.70;2.55;;;13.40;99.90;;;;;;5050536;28;20024;-80
2023/05/18 09:26:45;;;;;;;5.00;2.20;;;13.50;99.90;;;;;;5056430;28;20057;-81
2023/05/18 09:29:22;;;;;;;5.03;2.00;;;13.50;99.90;;;;;;5076926;28;20045;-81
2023/05/18 09:31:48;;;;;;;4.93;1.90;;;13.60;99.90;;;;;;5057284;28;20064;-82
2023/05/18 09:34:15;;;;;;;6.38;2.20;;;13.70;99.90;;;;;;5060800;28;20033;-84
2023/05/18 09:36:45;;;;;;;9.93;2.22;;;13.70;99.90;;;;;;5088997;28;20031;-83
2023/05/18 09:39:11;;;;;;;7.65;2.35;;;13.70;99.90;;;;;;5076179;28;20024;-82
2023/05/18 09:41:40;;;;;;;2.83;1.70;;;13.80;99.90;;;;;;5057925;28;20052;-82
2023/05/18 09:44:11;;;;;;;8.20;2.15;;;13.80;99.90;;;;;;5062810;28;20461;-79
2023/05/18 09:46:38;;;;;;;5.83;1.60;;;13.80;99.90;;;;;;5076507;28;20504;-83
2023/05/18 09:49:06;;;;;;;4.30;1.88;;;13.80;99.90;;;;;;5059149;28;20017;-87
2023/05/18 09:51:38;;;;;;;6.97;1.90;;;13.90;99.90;;;;;;5058361;28;20065;-83
2023/05/18 09:54:07;;;;;;;4.93;2.00;;;14.00;99.90;;;;;;5055944;28;20025;-82
2023/05/18 09:56:35;;;;;;;7.05;2.20;;;14.00;99.90;;;;;;5057990;28;20029;-83
2023/05/18 09:59:14;;;;;;;5.85;1.85;;;14.00;99.90;;;;;;5060348;28;20032;-85
2023/05/18 10:02:01;;;;;;;6.95;2.05;;;14.20;99.90;;;;;;5056776;28;20049;-81
2023/05/18 10:04:41;;;;;;;4.88;2.00;;;14.40;99.90;;;;;;5055521;28;20061;-80
2023/05/18 10:07:15;;;;;;;5.75;1.77;;;14.40;99.90;;;;;;5062768;28;20024;-81
2023/05/18 10:09:42;;;;;;;4.80;1.58;;;14.40;99.90;;;;;;5074801;28;20036;-83
2023/05/18 10:12:16;;;;;;;4.28;1.80;;;14.60;99.90;;;;;;5068512;28;20029;-80
2023/05/18 10:14:44;;;;;;;10.32;2.10;;;14.80;99.90;;;;;;5060307;28;20484;-81
2023/05/18 10:17:14;;;;;;;10.30;2.17;;;15.10;99.90;;;;;;5092016;28;20036;-82
2023/05/18 10:19:41;;;;;;;4.63;2.00;;;15.20;99.90;;;;;;5064166;28;20036;-82
2023/05/18 10:22:08;;;;;;;6.82;2.15;;;15.20;99.90;;;;;;5060502;28;20117;-83
2023/05/18 10:24:38;;;;;;;6.65;2.28;;;15.10;99.80;;;;;;5063990;28;20612;-81
2023/05/18 10:27:08;;;;;;;3.35;1.85;;;15.20;99.90;;;;;;5092127;28;20127;-82
2023/05/18 10:29:37;;;;;;;7.38;2.15;;;15.30;99.90;;;;;;5071851;28;20058;-81
2023/05/18 10:32:03;;;;;;;5.47;1.80;;;15.40;99.90;;;;;;5076359;28;20033;-84
2023/05/18 10:34:33;;;;;;;4.78;2.30;;;15.40;99.70;;;;;;5057148;28;20466;-82
2023/05/18 10:37:04;;;;;;;10.60;2.47;;;15.40;96.80;;;;;;5084869;28;20029;-86
2023/05/18 10:39:34;;;;;;;3.28;1.83;;;15.30;97.60;;;;;;5067218;28;20037;-80
2023/05/18 10:42:01;;;;;;;6.78;2.40;;;15.30;95.80;;;;;;5080820;28;20028;-83
2023/05/18 10:44:28;;;;;;;6.18;1.90;;;15.30;97.60;;;;;;5057237;28;20035;-81
2023/05/18 10:46:54;;;;;;;7.43;2.10;;;15.30;97.30;;;;;;5070044;28;20020;-81
2023/05/18 10:49:24;;;;;;;5.40;1.90;;;15.30;97.10;;;;;;5075531;28;20052;-83
2023/05/18 10:51:53;;;;;;;4.63;1.90;;;15.30;93.60;;;;;;5074975;28;20020;-82
2023/05/18 10:54:22;;;;;;;8.30;2.20;;;15.40;94.80;;;;;;5062522;28;20053;-82
2023/05/18 10:56:51;;;;;;;5.32;1.85;;;15.40;94.50;;;;;;5062664;28;20047;-81
2023/05/18 10:59:17;;;;;;;4.57;1.67;;;15.50;97.20;;;;;;5069642;28;20087;-80
2023/05/18 11:01:45;;;;;;;6.50;2.55;;;15.60;97.00;;;;;;5053689;28;20045;-81
2023/05/18 11:04:12;;;;;;;3.58;1.75;;;15.70;93.20;;;;;;5067350;28;20025;-82
2023/05/18 11:06:38;;;;;;;8.10;1.80;;;15.70;94.80;;;;;;5075601;28;20048;-83
2023/05/18 11:09:04;;;;;;;5.95;2.03;;;15.80;95.40;;;;;;5071307;28;20073;-82
2023/05/18 11:11:54;;;;;;;5.20;1.52;;;15.80;93.30;;;;;;5068663;28;20032;-82
2023/05/18 11:14:30;;;;;;;7.25;1.73;;;15.90;92.10;;;;;;5071341;28;20187;-83
2023/05/18 11:17:22;;;;;;;5.28;2.45;;;16.00;91.10;;;;;;5090782;28;20060;-84
2023/05/18 11:20:10;;;;;;;4.72;2.20;;;16.10;91.60;;;;;;5071755;28;20049;-83
2023/05/18 11:23:00;;;;;;;5.70;2.10;;;16.30;95.20;;;;;;5065980;28;20216;-84
2023/05/18 11:25:26;;;;;;;5.75;1.80;;;16.50;94.70;;;;;;5062645;28;20269;-81
2023/05/18 11:27:53;;;;;;;4.38;1.90;;;16.80;95.90;;;;;;5059397;28;20635;-82
2023/05/18 11:30:36;;;;;;;4.90;1.65;;;16.80;92.30;;;;;;5055855;28;20068;-82
2023/05/18 11:33:10;;;;;;;5.72;1.50;;;16.70;92.90;;;;;;5067805;28;20060;-85
2023/05/18 11:36:10;;;;;;;7.53;1.85;;;16.70;93.70;;;;;;5074308;28;20465;-82
2023/05/18 11:38:45;;;;;;;7.30;1.83;;;16.80;95.10;;;;;;5070217;28;20032;-85
2023/05/18 11:41:33;;;;;;;3.53;1.50;;;16.90;93.00;;;;;;5067786;28;20020;-80
2023/05/18 11:44:12;;;;;;;5.90;1.58;;;17.00;93.80;;;;;;5057402;28;20489;-84
2023/05/18 11:47:00;;;;;;;4.72;1.52;;;17.00;93.40;;;;;;5073487;28;20018;-80
2023/05/18 11:49:29;;;;;;;6.70;1.60;;;17.00;90.80;;;;;;5062363;28;20049;-80
2023/05/18 11:52:11;;;;;;;5.13;1.40;;;17.00;93.10;;;;;;5063422;28;20032;-81
2023/05/18 11:54:53;;;;;;;7.40;1.67;;;17.00;92.80;;;;;;5052984;28;20118;-82
2023/05/18 11:57:22;;;;;;;5.65;1.50;;;17.10;93.30;;;;;;5053791;28;20021;-84
2023/05/18 11:59:54;;;;;;;6.22;1.48;;;17.10;92.60;;;;;;5049914;28;20043;-84
2023/05/18 12:02:21;;;;;;;;;;;17.20;92.50;;;;;;5058971;28;20028;-83
2023/05/18 12:04:49;;;;;;;5.63;1.70;;;17.30;91.00;;;;;;5054480;28;19919;-84
2023/05/18 12:07:17;;;;;;;4.13;1.92;;;17.40;92.70;;;;;;5068997;28;20020;-84
2023/05/18 12:09:44;;;;;;;6.53;1.73;;;17.50;90.30;;;;;;5056011;28;20063;-83
2023/05/18 12:12:11;;;;;;;8.02;1.50;;;17.60;91.70;;;;;;5052715;28;20409;-81
2023/05/18 12:14:39;;;;;;;6.72;1.50;;;17.70;91.00;;;;;;5053407;28;20064;-83
2023/05/18 12:17:06;;;;;;;5.15;1.30;;;18.00;90.50;;;;;;5061594;28;20028;-83
2023/05/18 12:19:43;;;;;;;5.55;1.90;;;17.90;88.90;;;;;;5059954;28;20025;-85
2023/05/18 12:22:09;;;;;;;7.07;1.75;;;18.00;89.70;;;;;;5062799;28;20028;-85
2023/05/18 12:24:37;;;;;;;6.50;1.70;;;18.20;89.70;;;;;;5071662;28;20069;-82
2023/05/18 12:27:05;;;;;;;3.88;1.30;;;18.20;84.20;;;;;;5072828;28;20500;-84
2023/05/18 12:29:31;;;;;;;3.45;1.25;;;18.20;83.00;;;;;;5066859;28;20370;-84
2023/05/18 12:31:57;;;;;;;3.03;1.13;;;18.50;83.20;;;;;;5062905;28;20028;-83
2023/05/18 12:34:28;;;;;;;3.63;1.50;;;18.50;80.10;;;;;;5063085;28;20107;-86
2023/05/18 12:36:54;;;;;;;6.85;1.30;;;18.60;79.60;;;;;;5078867;28;20025;-84
2023/05/18 12:39:20;;;;;;;6.72;1.60;;;18.50;80.10;;;;;;5070781;28;20043;-85
2023/05/18 12:41:46;;;;;;;5.68;1.60;;;18.60;78.20;;;;;;5069383;28;20502;-85
2023/05/18 12:44:12;;;;;;;4.13;1.55;;;18.80;82.40;;;;;;5059281;28;20470;-82
2023/05/18 12:46:39;;;;;;;4.38;1.20;;;19.00;82.90;;;;;;5070243;28;20028;-85
2023/05/18 12:49:06;;;;;;;8.82;1.60;;;19.20;79.50;;;;;;5069025;28;20021;-86
2023/05/18 12:51:37;;;;;;;4.97;1.38;;;19.30;81.00;;;;;;5065488;28;20090;-82
2023/05/18 12:54:04;;;;;;;5.70;1.35;;;19.50;81.50;;;;;;5077289;28;20377;-84